Time;durP1;ratioP1;P1;durP2;ratioP2;P2;SDS_P1;SDS_P2;PMS_P1;PMS_P2;Temp;Humidity;BMP_temperature;BMP_pressure;BME280_temperature;BME280_humidity;BME280_pressure;Samples;Min_cycle;Max_cycle;Signal;HPM_P1;HPM_P2
2022/01/04 00:01:36;;;;;;;17.90;5.03;;;7.60;91.30;;;;;;5055332;28;20195;-86
2022/01/04 00:04:02;;;;;;;23.37;5.77;;;7.60;91.30;;;;;;5054799;28;20280;-86
2022/01/04 00:06:28;;;;;;;27.10;5.67;;;7.60;91.10;;;;;;5054943;28;20172;-86
2022/01/04 00:09:00;;;;;;;19.93;5.63;;;7.60;91.20;;;;;;5055065;28;20192;-87
2022/01/04 00:13:21;;;;;;;16.10;5.20;;;7.60;91.00;;;;;;5056248;28;20612;-86
2022/01/04 00:14:18;;;;;;;18.63;6.00;;;7.70;90.80;;;;;;5053269;28;20180;-86
2022/01/04 00:16:45;;;;;;;14.70;4.07;;;7.70;90.80;;;;;;5054268;28;20600;-86
2022/01/04 00:19:10;;;;;;;21.00;5.10;;;7.70;90.80;;;;;;5054540;28;20204;-85
2022/01/04 00:21:37;;;;;;;21.50;5.60;;;7.70;90.40;;;;;;5054358;28;20267;-86
2022/01/04 00:24:04;;;;;;;19.37;5.30;;;7.70;90.60;;;;;;5054264;28;20605;-86
2022/01/04 00:26:30;;;;;;;23.67;5.77;;;7.70;90.40;;;;;;5054099;28;20168;-86
2022/01/04 00:28:56;;;;;;;18.07;4.37;;;7.80;90.40;;;;;;5055530;28;20188;-86
2022/01/04 00:31:22;;;;;;;21.17;5.03;;;7.70;90.70;;;;;;5054391;28;20618;-86
2022/01/04 00:33:50;;;;;;;22.07;5.47;;;7.70;90.70;;;;;;5055696;28;20625;-85
2022/01/04 00:36:16;;;;;;;13.23;4.67;;;7.70;90.60;;;;;;5054482;28;20168;-86
2022/01/04 00:38:46;;;;;;;17.70;5.80;;;7.70;90.60;;;;;;5055368;28;20168;-85
2022/01/04 00:41:11;;;;;;;19.77;4.63;;;7.70;90.70;;;;;;5054257;28;20176;-85
2022/01/04 00:43:37;;;;;;;22.17;5.10;;;7.70;90.80;;;;;;5054148;28;20572;-85
2022/01/04 00:46:03;;;;;;;21.43;6.20;;;7.70;90.80;;;;;;5054232;28;20225;-85
2022/01/04 00:50:55;;;;;;;15.07;4.90;;;7.70;90.70;;;;;;5055336;28;20566;-84
2022/01/04 00:53:21;;;;;;;10.23;4.00;;;7.70;90.70;;;;;;5055331;28;20541;-86
2022/01/04 00:55:47;;;;;;;16.77;5.63;;;7.70;90.70;;;;;;5053736;28;20179;-85
2022/01/04 00:58:13;;;;;;;17.03;5.97;;;7.70;90.90;;;;;;5053805;28;20648;-85
2022/01/04 01:00:40;;;;;;;15.10;4.93;;;7.60;90.90;;;;;;5055170;28;20188;-86
2022/01/04 01:03:07;;;;;;;17.50;5.97;;;7.70;90.60;;;;;;5053880;28;20172;-85
2022/01/04 01:05:33;;;;;;;20.73;6.97;;;7.60;90.50;;;;;;5056405;28;20204;-84
2022/01/04 01:07:59;;;;;;;13.30;5.27;;;7.70;90.60;;;;;;5054469;28;20176;-85
2022/01/04 01:12:52;;;;;;;12.70;5.33;;;7.60;90.60;;;;;;5054219;28;20651;-85
2022/01/04 01:15:18;;;;;;;21.47;5.47;;;7.70;90.40;;;;;;5054588;28;20195;-86
2022/01/04 01:17:43;;;;;;;12.50;4.33;;;7.60;90.40;;;;;;5053017;28;20184;-85
2022/01/04 01:20:10;;;;;;;20.30;6.60;;;7.60;90.30;;;;;;5054388;28;20238;-85
2022/01/04 01:22:37;;;;;;;11.43;5.13;;;7.60;90.50;;;;;;5054421;28;20225;-85
2022/01/04 01:25:04;;;;;;;14.43;6.53;;;7.60;90.70;;;;;;5052945;28;20609;-85
2022/01/04 01:27:30;;;;;;;18.93;5.70;;;7.60;90.80;;;;;;5054152;28;20179;-85
2022/01/04 01:29:56;;;;;;;15.07;6.23;;;7.50;91.00;;;;;;5053931;28;20278;-85
2022/01/04 01:32:22;;;;;;;14.30;5.57;;;7.50;91.20;;;;;;5052870;28;20247;-86
2022/01/04 01:34:47;;;;;;;14.47;5.87;;;7.40;91.10;;;;;;5052781;28;20172;-84
2022/01/04 01:37:13;;;;;;;19.17;5.90;;;7.40;91.10;;;;;;5054028;28;20229;-88
2022/01/04 01:39:39;;;;;;;16.07;6.73;;;7.30;91.20;;;;;;5053917;28;20690;-84
2022/01/04 01:42:05;;;;;;;11.27;6.37;;;7.30;91.40;;;;;;5052944;28;20175;-86
2022/01/04 01:44:32;;;;;;;15.97;6.03;;;7.40;91.20;;;;;;5053070;28;20183;-86
2022/01/04 01:46:58;;;;;;;18.20;7.43;;;7.40;91.30;;;;;;5054862;28;20286;-88
2022/01/04 01:49:24;;;;;;;18.23;8.93;;;7.30;91.20;;;;;;5056148;28;20234;-87
2022/01/04 01:51:51;;;;;;;25.03;8.57;;;7.30;91.30;;;;;;5057716;28;20168;-88
2022/01/04 01:54:16;;;;;;;22.03;7.17;;;7.30;91.30;;;;;;5057106;28;20640;-88
2022/01/04 01:56:42;;;;;;;18.97;7.87;;;7.30;91.30;;;;;;5056810;28;20194;-88
2022/01/04 01:59:08;;;;;;;16.93;6.77;;;7.30;91.40;;;;;;5056242;28;20191;-87
2022/01/04 02:01:34;;;;;;;11.43;5.50;;;7.30;91.40;;;;;;5056034;28;20172;-87
2022/01/04 02:03:59;;;;;;;17.53;8.50;;;7.30;91.50;;;;;;5054499;28;20183;-85
2022/01/04 02:06:29;;;;;;;27.27;8.80;;;7.30;91.50;;;;;;5052738;28;20262;-86
2022/01/04 02:08:57;;;;;;;23.30;9.60;;;7.30;91.50;;;;;;5053736;28;20180;-86
2022/01/04 02:11:23;;;;;;;18.60;7.53;;;7.30;91.60;;;;;;5053927;28;20203;-86
2022/01/04 02:13:49;;;;;;;20.27;8.07;;;7.30;91.60;;;;;;5053798;28;20516;-85
2022/01/04 02:16:16;;;;;;;21.73;8.93;;;7.30;91.60;;;;;;5052145;28;20325;-85
2022/01/04 02:18:42;;;;;;;20.67;7.60;;;7.30;91.50;;;;;;5052336;28;20172;-86
2022/01/04 02:21:08;;;;;;;20.50;8.47;;;7.30;91.60;;;;;;5052319;28;20176;-85
2022/01/04 02:23:33;;;;;;;10.20;6.40;;;7.30;91.60;;;;;;5053300;28;20255;-85
2022/01/04 02:26:02;;;;;;;24.23;9.50;;;7.30;91.60;;;;;;5052157;28;20261;-86
2022/01/04 02:28:29;;;;;;;21.27;8.40;;;7.30;91.60;;;;;;5053740;28;20179;-86
2022/01/04 02:30:56;;;;;;;17.47;8.40;;;7.30;91.60;;;;;;5052368;28;20268;-85
2022/01/04 02:33:21;;;;;;;19.90;7.93;;;7.40;91.60;;;;;;5052040;28;20659;-86
2022/01/04 02:35:47;;;;;;;18.87;8.20;;;7.40;91.70;;;;;;5053282;28;20172;-85
2022/01/04 02:38:13;;;;;;;11.10;5.83;;;7.40;91.70;;;;;;5053217;28;20179;-86
2022/01/04 02:40:38;;;;;;;20.27;7.17;;;7.40;91.80;;;;;;5053092;28;20195;-86
2022/01/04 02:43:04;;;;;;;16.20;8.70;;;7.30;91.90;;;;;;5053010;28;20164;-86
2022/01/04 02:45:30;;;;;;;20.93;8.73;;;7.30;91.90;;;;;;5051822;28;20262;-86
2022/01/04 02:47:56;;;;;;;25.27;9.63;;;7.30;92.00;;;;;;5051723;28;20176;-86
2022/01/04 02:50:21;;;;;;;24.03;9.30;;;7.30;91.90;;;;;;5052832;28;20253;-85
2022/01/04 02:52:48;;;;;;;18.03;8.33;;;7.30;92.00;;;;;;5051637;28;20179;-86
2022/01/04 02:55:15;;;;;;;18.90;8.80;;;7.30;92.00;;;;;;5051637;28;20183;-86
2022/01/04 02:57:42;;;;;;;28.33;10.80;;;7.30;92.10;;;;;;5053206;28;20648;-86
2022/01/04 03:00:10;;;;;;;24.93;10.63;;;7.30;92.10;;;;;;5052957;28;20702;-86
2022/01/04 03:02:36;;;;;;;13.50;7.30;;;7.30;92.00;;;;;;5053229;28;20537;-86
2022/01/04 03:05:02;;;;;;;16.23;7.07;;;7.40;91.80;;;;;;5052881;28;20172;-86
2022/01/04 03:07:28;;;;;;;18.70;7.20;;;7.40;91.70;;;;;;5051646;28;20263;-86
2022/01/04 03:09:53;;;;;;;26.87;9.93;;;7.50;91.50;;;;;;5051329;28;20758;-86
2022/01/04 03:12:20;;;;;;;18.80;8.53;;;7.50;91.60;;;;;;5051548;28;20176;-86
2022/01/04 03:14:45;;;;;;;30.07;9.67;;;7.40;91.60;;;;;;5051504;28;20639;-86
2022/01/04 03:17:11;;;;;;;24.60;9.73;;;7.40;91.80;;;;;;5051352;28;20194;-86
2022/01/04 03:19:37;;;;;;;27.97;10.20;;;7.40;91.70;;;;;;5052715;28;20645;-86
2022/01/04 03:22:03;;;;;;;19.73;9.07;;;7.50;91.70;;;;;;5052992;28;20175;-86
2022/01/04 03:24:29;;;;;;;18.17;8.63;;;7.50;91.60;;;;;;5051384;28;20267;-86
2022/01/04 03:26:54;;;;;;;24.47;10.07;;;7.50;91.50;;;;;;5052652;28;20207;-86
2022/01/04 03:29:20;;;;;;;27.17;9.70;;;7.50;91.60;;;;;;5051252;28;20226;-86
2022/01/04 03:31:47;;;;;;;27.67;9.77;;;7.40;91.60;;;;;;5147678;22;20223;-88
2022/01/04 03:34:13;;;;;;;21.07;8.80;;;7.50;91.60;;;;;;5054699;28;20180;-87
2022/01/04 03:36:39;;;;;;;24.00;9.90;;;7.50;91.60;;;;;;5056692;28;20266;-87
2022/01/04 03:39:07;;;;;;;28.00;11.20;;;7.50;91.60;;;;;;5059063;28;20548;-87
2022/01/04 03:41:37;;;;;;;25.47;10.27;;;7.40;91.80;;;;;;5058239;28;20278;-87
2022/01/04 03:44:04;;;;;;;21.70;10.83;;;7.40;91.90;;;;;;5058283;28;20177;-87
2022/01/04 03:46:30;;;;;;;27.10;11.83;;;7.40;92.10;;;;;;5058236;28;20209;-87
2022/01/04 03:48:55;;;;;;;30.93;13.13;;;7.40;92.20;;;;;;5076387;28;20210;-87
2022/01/04 03:51:21;;;;;;;25.73;12.27;;;7.40;92.30;;;;;;5057941;28;20286;-88
2022/01/04 03:53:47;;;;;;;21.40;9.87;;;7.40;92.40;;;;;;5076101;28;20171;-88
2022/01/04 03:56:12;;;;;;;25.30;12.33;;;7.40;92.30;;;;;;5058028;28;20654;-87
2022/01/04 03:58:38;;;;;;;22.53;11.60;;;7.40;92.20;;;;;;5075933;28;20199;-87
2022/01/04 04:01:04;;;;;;;30.73;12.93;;;7.50;92.10;;;;;;5058010;28;20286;-87
2022/01/04 04:03:30;;;;;;;26.00;13.00;;;7.50;92.10;;;;;;5058728;28;20175;-87
2022/01/04 04:05:56;;;;;;;25.03;11.77;;;7.50;92.00;;;;;;5075796;28;20178;-87
2022/01/04 04:08:22;;;;;;;28.20;13.13;;;7.50;92.00;;;;;;5075734;28;20250;-87
2022/01/04 04:10:47;;;;;;;23.40;11.27;;;7.50;92.00;;;;;;5057778;28;20560;-87
2022/01/04 04:13:13;;;;;;;26.93;10.30;;;7.40;92.00;;;;;;5057705;28;20762;-87
2022/01/04 04:15:40;;;;;;;28.80;13.37;;;7.50;91.90;;;;;;5057842;28;20176;-87
2022/01/04 04:18:07;;;;;;;26.47;12.50;;;7.50;92.00;;;;;;5058095;28;20171;-87
2022/01/04 04:20:34;;;;;;;29.43;12.40;;;7.40;92.00;;;;;;5075642;28;20254;-87
2022/01/04 04:22:59;;;;;;;31.07;13.80;;;7.50;91.90;;;;;;5057672;28;20278;-87
2022/01/04 04:25:25;;;;;;;28.47;13.43;;;7.40;92.00;;;;;;5057457;28;20193;-87
2022/01/04 04:27:50;;;;;;;32.93;10.57;;;7.40;92.00;;;;;;5057554;28;20207;-87
2022/01/04 04:30:16;;;;;;;29.17;12.90;;;7.50;92.00;;;;;;5075361;28;20553;-88
2022/01/04 04:32:42;;;;;;;29.30;11.00;;;7.50;92.00;;;;;;5057457;28;20210;-87
2022/01/04 04:35:08;;;;;;;26.63;12.37;;;7.50;91.80;;;;;;5075524;28;20654;-87
2022/01/04 04:37:33;;;;;;;29.33;12.90;;;7.50;91.70;;;;;;5057354;28;20171;-87
2022/01/04 04:39:59;;;;;;;32.43;12.10;;;7.40;91.80;;;;;;5058361;28;20722;-87
2022/01/04 04:42:25;;;;;;;23.37;12.60;;;7.50;91.90;;;;;;5057235;28;20203;-88
2022/01/04 04:44:50;;;;;;;23.77;12.33;;;7.40;92.00;;;;;;5075201;28;20187;-87
2022/01/04 04:47:16;;;;;;;21.67;11.60;;;7.40;92.10;;;;;;5056963;28;20194;-87
2022/01/04 04:49:41;;;;;;;23.77;10.70;;;7.40;92.10;;;;;;5057261;28;20295;-87
2022/01/04 04:52:07;;;;;;;27.77;13.73;;;7.50;92.10;;;;;;5074948;28;20226;-88
2022/01/04 04:54:33;;;;;;;20.17;10.47;;;7.40;92.10;;;;;;5056984;28;20176;-87
2022/01/04 04:56:58;;;;;;;25.77;11.77;;;7.40;92.20;;;;;;5075113;28;20623;-87
2022/01/04 04:59:24;;;;;;;29.87;14.07;;;7.40;92.10;;;;;;5056844;28;20179;-88
2022/01/04 05:01:50;;;;;;;22.00;12.73;;;7.40;92.10;;;;;;5074977;28;20191;-88
2022/01/04 05:04:15;;;;;;;26.73;14.37;;;7.30;92.40;;;;;;5074664;28;20176;-87
2022/01/04 05:06:41;;;;;;;27.70;13.63;;;7.30;92.40;;;;;;5056800;28;20186;-87
2022/01/04 05:09:06;;;;;;;27.00;13.87;;;7.40;92.30;;;;;;5056757;28;20224;-87
2022/01/04 05:11:32;;;;;;;23.67;12.37;;;7.40;92.20;;;;;;5056543;28;20217;-88
2022/01/04 05:13:59;;;;;;;18.63;10.60;;;7.40;92.00;;;;;;5074438;28;20222;-87
2022/01/04 05:16:24;;;;;;;32.77;13.97;;;7.40;92.10;;;;;;5056601;28;20228;-87
2022/01/04 05:18:50;;;;;;;24.57;14.17;;;7.30;92.10;;;;;;5057399;28;20184;-87
2022/01/04 05:21:16;;;;;;;23.90;12.23;;;7.40;92.20;;;;;;5056394;28;20221;-87
2022/01/04 05:23:41;;;;;;;28.93;13.17;;;7.30;92.20;;;;;;5056675;28;20651;-87
2022/01/04 05:26:07;;;;;;;33.07;14.40;;;7.30;92.20;;;;;;5056420;28;20601;-87
2022/01/04 05:28:33;;;;;;;25.17;13.30;;;7.30;92.30;;;;;;5056593;28;20273;-87
2022/01/04 05:31:00;;;;;;;26.20;14.87;;;7.30;92.30;;;;;;5074015;28;20227;-88
2022/01/04 05:33:25;;;;;;;34.50;14.87;;;7.30;92.40;;;;;;5056194;28;20190;-87
2022/01/04 05:35:53;;;;;;;31.67;16.03;;;7.30;92.40;;;;;;5056249;28;20228;-87
2022/01/04 05:38:19;;;;;;;19.33;11.03;;;7.30;92.50;;;;;;5074385;28;20526;-87
2022/01/04 05:40:45;;;;;;;22.63;13.20;;;7.30;92.40;;;;;;5074008;28;20175;-87
2022/01/04 05:43:10;;;;;;;31.30;13.07;;;7.30;92.40;;;;;;5056009;28;20213;-87
2022/01/04 05:45:36;;;;;;;28.27;14.70;;;7.30;92.40;;;;;;5056027;28;20182;-87
2022/01/04 05:48:01;;;;;;;22.23;11.43;;;7.30;92.30;;;;;;5055976;28;20723;-87
2022/01/04 05:50:29;;;;;;;24.33;12.73;;;7.30;92.20;;;;;;5055838;28;20195;-87
2022/01/04 05:52:55;;;;;;;29.27;13.67;;;7.30;92.20;;;;;;5055862;28;20671;-87
2022/01/04 05:55:20;;;;;;;35.17;15.57;;;7.30;92.10;;;;;;5055887;28;20182;-87
2022/01/04 05:57:46;;;;;;;22.10;11.50;;;7.30;92.20;;;;;;5056189;28;20168;-87
2022/01/04 06:00:12;;;;;;;26.37;11.93;;;7.30;92.10;;;;;;5055219;28;20175;-88
2022/01/04 06:02:38;;;;;;;22.77;12.80;;;7.30;92.00;;;;;;5055642;28;20203;-87
2022/01/04 06:05:04;;;;;;;21.73;10.30;;;7.30;92.20;;;;;;5055759;28;20185;-87
2022/01/04 06:07:29;;;;;;;11.97;6.93;;;7.20;92.40;;;;;;5056260;28;20182;-87
2022/01/04 06:09:55;;;;;;;17.13;7.77;;;7.20;92.20;;;;;;5073370;28;20195;-87
2022/01/04 06:15:01;;;;;;;16.50;7.03;;;7.10;91.70;;;;;;5073816;28;20147;-87
2022/01/04 06:17:35;;;;;;;13.40;5.97;;;7.00;91.60;;;;;;5055961;28;20188;-87
2022/01/04 06:20:04;;;;;;;12.47;6.07;;;7.00;91.50;;;;;;5073712;28;20162;-87
2022/01/04 06:22:30;;;;;;;16.47;6.23;;;7.00;91.40;;;;;;5055829;28;20202;-87
2022/01/04 06:24:56;;;;;;;10.70;4.83;;;7.00;91.50;;;;;;5055660;28;20655;-87
2022/01/04 06:27:23;;;;;;;10.93;5.93;;;7.00;91.30;;;;;;5073325;28;20224;-87
2022/01/04 06:29:49;;;;;;;11.40;5.83;;;7.00;91.40;;;;;;5055663;28;20681;-88
2022/01/04 06:32:15;;;;;;;14.17;5.00;;;6.90;91.60;;;;;;5055201;28;20215;-88
2022/01/04 06:34:42;;;;;;;14.60;6.27;;;6.80;91.70;;;;;;5055369;28;20174;-87
2022/01/04 06:37:09;;;;;;;17.67;7.50;;;6.80;92.10;;;;;;5055276;28;20175;-87
2022/01/04 06:39:35;;;;;;;21.67;9.27;;;6.80;92.60;;;;;;5055327;28;20598;-87
2022/01/04 06:42:01;;;;;;;24.33;10.83;;;6.90;93.00;;;;;;5055547;28;20199;-87
2022/01/04 06:44:27;;;;;;;26.60;12.63;;;7.00;93.30;;;;;;5073427;28;20220;-88
2022/01/04 06:46:53;;;;;;;21.03;12.90;;;7.00;93.40;;;;;;5055182;28;20543;-87
2022/01/04 06:49:19;;;;;;;29.20;14.40;;;7.10;93.30;;;;;;5072908;28;20176;-87
2022/01/04 06:51:47;;;;;;;36.53;15.87;;;7.10;93.30;;;;;;5073064;28;20186;-87
2022/01/04 06:54:15;;;;;;;32.80;17.53;;;7.10;93.40;;;;;;5073063;28;20164;-87
2022/01/04 06:56:42;;;;;;;29.17;15.40;;;7.20;93.40;;;;;;5072961;28;20317;-88
2022/01/04 06:59:07;;;;;;;44.40;20.23;;;7.20;93.40;;;;;;5055052;28;20178;-87
2022/01/04 07:01:35;;;;;;;35.03;17.60;;;7.20;93.60;;;;;;5073266;28;20197;-87
2022/01/04 07:04:00;;;;;;;32.07;15.87;;;7.20;93.60;;;;;;5055577;28;20182;-87
2022/01/04 07:06:26;;;;;;;30.37;15.60;;;7.20;93.80;;;;;;5055029;28;20209;-87
2022/01/04 07:08:52;;;;;;;30.27;18.30;;;7.20;93.80;;;;;;5055062;28;20651;-87
2022/01/04 07:11:18;;;;;;;50.25;24.02;;;7.20;93.90;;;;;;5056241;28;20425;-88
2022/01/04 07:13:44;;;;;;;48.43;23.30;;;7.30;93.90;;;;;;5058962;28;20183;-87
2022/01/04 07:16:10;;;;;;;49.77;23.67;;;7.30;93.80;;;;;;5058898;28;20175;-87
2022/01/04 07:18:35;;;;;;;49.13;23.63;;;7.20;93.90;;;;;;5058785;28;20183;-87
2022/01/04 07:21:01;;;;;;;47.57;23.53;;;7.20;94.00;;;;;;5058705;28;20198;-87
2022/01/04 07:23:27;;;;;;;39.13;22.03;;;7.20;94.10;;;;;;5058973;28;20182;-88
2022/01/04 07:25:54;;;;;;;34.53;19.13;;;7.20;94.10;;;;;;5059828;28;20176;-88
2022/01/04 07:28:20;;;;;;;45.57;23.77;;;7.20;94.30;;;;;;5058751;28;20176;-87
2022/01/04 07:30:46;;;;;;;41.67;22.57;;;7.20;94.40;;;;;;5058858;28;20237;-88
2022/01/04 07:33:12;;;;;;;43.03;21.33;;;7.20;94.30;;;;;;5058865;28;20246;-88
2022/01/04 07:35:38;;;;;;;40.17;21.30;;;7.20;94.30;;;;;;5058506;28;20205;-88
2022/01/04 07:38:03;;;;;;;45.83;24.13;;;7.20;94.20;;;;;;5076365;28;20282;-88
2022/01/04 07:40:29;;;;;;;42.53;23.23;;;7.20;94.10;;;;;;5058468;28;20179;-88
2022/01/04 07:42:59;;;;;;;47.97;21.33;;;7.30;94.10;;;;;;5058269;28;20206;-88
2022/01/04 07:45:29;;;;;;;46.10;23.17;;;7.30;94.10;;;;;;5058265;28;20258;-88
2022/01/04 07:47:56;;;;;;;39.20;20.90;;;7.30;94.00;;;;;;5058363;28;20236;-88
2022/01/04 07:50:22;;;;;;;45.07;23.67;;;7.30;94.00;;;;;;5058080;28;20207;-87
2022/01/04 07:52:47;;;;;;;52.00;23.17;;;7.30;93.90;;;;;;5058088;28;20226;-89
2022/01/04 07:55:13;;;;;;;46.13;23.90;;;7.30;93.70;;;;;;5058547;28;20175;-89
2022/01/04 07:57:41;;;;;;;46.33;23.70;;;7.30;93.70;;;;;;5058400;28;20175;-89
2022/01/04 08:00:09;;;;;;;40.10;20.73;;;7.30;93.80;;;;;;5058422;28;20587;-89
2022/01/04 08:02:35;;;;;;;39.77;21.70;;;7.30;93.90;;;;;;5057849;28;20206;-88
2022/01/04 08:05:01;;;;;;;47.73;22.70;;;7.30;93.90;;;;;;5058272;28;20218;-89
2022/01/04 08:07:26;;;;;;;50.20;23.27;;;7.30;94.00;;;;;;5076441;28;20214;-89
2022/01/04 08:09:52;;;;;;;48.27;24.93;;;7.30;94.00;;;;;;5077112;28;20695;-88
2022/01/04 08:12:19;;;;;;;48.07;24.43;;;7.30;94.00;;;;;;5078124;28;20194;-90
2022/01/04 08:14:45;;;;;;;53.17;25.37;;;7.30;94.00;;;;;;5078057;28;20297;-90
2022/01/04 08:17:12;;;;;;;49.90;24.73;;;7.20;94.00;;;;;;5078284;28;20286;-90
2022/01/04 08:19:37;;;;;;;49.00;25.30;;;7.30;94.00;;;;;;5077699;28;20258;-90
2022/01/04 08:22:03;;;;;;;52.27;24.77;;;7.30;94.00;;;;;;5076687;28;20222;-89
2022/01/04 08:24:29;;;;;;;48.90;21.63;;;7.30;94.10;;;;;;5059219;28;20184;-90
2022/01/04 08:26:55;;;;;;;45.93;23.73;;;7.30;94.00;;;;;;5059164;28;20186;-89
2022/01/04 08:29:21;;;;;;;44.77;22.57;;;7.30;94.00;;;;;;5076881;28;20647;-89
2022/01/04 08:31:46;;;;;;;32.40;20.77;;;7.30;94.00;;;;;;5059124;28;20257;-90
2022/01/04 08:34:13;;;;;;;39.87;20.40;;;7.30;93.90;;;;;;5078202;28;20669;-89
2022/01/04 08:36:39;;;;;;;43.30;22.97;;;7.30;93.90;;;;;;5077055;28;20226;-89
2022/01/04 08:39:06;;;;;;;46.60;22.07;;;7.30;93.90;;;;;;5076915;28;20164;-89
2022/01/04 08:41:32;;;;;;;31.63;18.43;;;7.30;93.90;;;;;;5077015;28;20191;-90
2022/01/04 08:43:58;;;;;;;39.97;21.90;;;7.30;93.90;;;;;;5076982;28;20179;-89
2022/01/04 08:46:24;;;;;;;39.30;20.57;;;7.30;93.70;;;;;;5076943;28;20639;-90
2022/01/04 08:48:50;;;;;;;42.70;25.30;;;7.30;93.80;;;;;;5076472;28;20513;-90
2022/01/04 08:51:16;;;;;;;40.40;21.93;;;7.30;93.90;;;;;;5076990;28;20206;-89
2022/01/04 08:53:43;;;;;;;36.37;21.30;;;7.30;93.90;;;;;;5076591;28;20210;-89
2022/01/04 08:56:08;;;;;;;43.63;20.63;;;7.30;93.90;;;;;;5076246;28;20170;-89
2022/01/04 08:58:34;;;;;;;33.13;17.43;;;7.30;93.80;;;;;;5076141;28;20543;-89
2022/01/04 09:01:02;;;;;;;41.27;25.23;;;7.30;93.90;;;;;;5076795;28;20186;-89
2022/01/04 09:03:28;;;;;;;42.23;24.23;;;7.30;93.90;;;;;;5076428;28;20168;-90
2022/01/04 09:05:54;;;;;;;46.33;28.00;;;7.30;94.00;;;;;;5076708;28;20172;-89
2022/01/04 09:08:20;;;;;;;44.83;23.23;;;7.30;94.10;;;;;;5058658;28;20245;-90
2022/01/04 09:10:46;;;;;;;34.37;18.30;;;7.30;94.10;;;;;;5058217;28;20280;-90
2022/01/04 09:13:18;;;;;;;51.63;25.50;;;7.30;94.00;;;;;;5076062;28;20225;-89
2022/01/04 09:20:54;;;;;;;46.07;25.03;;;7.30;93.90;;;;;;5076472;28;20247;-89
2022/01/04 09:23:21;;;;;;;44.47;24.83;;;7.40;93.90;;;;;;5076106;28;20171;-89
2022/01/04 09:25:49;;;;;;;36.87;22.07;;;7.40;93.80;;;;;;5075784;28;20696;-90
2022/01/04 09:28:16;;;;;;;42.77;24.27;;;7.40;93.80;;;;;;5075976;28;20175;-89
2022/01/04 09:30:45;;;;;;;31.73;17.83;;;7.50;93.70;;;;;;5057517;28;20221;-89
2022/01/04 09:33:10;;;;;;;42.60;24.87;;;7.50;93.70;;;;;;5077692;22;20233;-90
2022/01/04 09:35:37;;;;;;;41.10;22.60;;;7.60;93.40;;;;;;5055081;28;20164;-90
2022/01/04 09:38:05;;;;;;;41.93;22.03;;;7.50;93.50;;;;;;5054994;28;20190;-90
2022/01/04 09:40:36;;;;;;;42.97;24.93;;;7.60;93.50;;;;;;5054300;28;20175;-90
2022/01/04 09:43:06;;;;;;;41.47;24.63;;;7.60;93.40;;;;;;5053697;28;20199;-90
2022/01/04 09:45:32;;;;;;;30.47;19.20;;;7.60;93.40;;;;;;5055478;28;20156;-90
2022/01/04 09:47:57;;;;;;;43.37;24.57;;;7.60;93.40;;;;;;5055007;28;20168;-90
2022/01/04 09:50:23;;;;;;;34.07;22.17;;;7.60;93.40;;;;;;5053330;28;20203;-90
2022/01/04 09:52:49;;;;;;;34.63;20.57;;;7.60;93.40;;;;;;5053400;28;20200;-90
2022/01/04 09:55:17;;;;;;;36.63;20.10;;;7.60;93.10;;;;;;5053741;28;20208;-90
2022/01/04 09:57:44;;;;;;;37.77;22.33;;;7.60;93.20;;;;;;5054899;28;20172;-90
2022/01/04 10:00:15;;;;;;;40.73;21.27;;;7.60;93.30;;;;;;5053648;28;20313;-90
2022/01/04 10:02:52;;;;;;;33.03;18.63;;;7.60;93.30;;;;;;5054361;28;20196;-90
2022/01/04 10:05:25;;;;;;;35.87;22.27;;;7.60;93.20;;;;;;5053614;28;20172;-90
2022/01/04 10:08:01;;;;;;;32.57;17.07;;;7.60;93.10;;;;;;5053567;28;20255;-90
2022/01/04 10:10:27;;;;;;;29.77;15.33;;;7.60;93.00;;;;;;5053553;28;20561;-90
2022/01/04 10:12:57;;;;;;;27.87;18.73;;;7.70;93.00;;;;;;5053274;28;20283;-90
2022/01/04 10:15:50;;;;;;;35.30;20.60;;;7.70;93.10;;;;;;5054669;28;20164;-91
2022/01/04 10:18:21;;;;;;;46.10;21.50;;;7.70;93.30;;;;;;5050401;28;20186;-90
2022/01/04 10:20:52;;;;;;;29.83;18.90;;;7.70;93.30;;;;;;5054286;28;20218;-90
2022/01/04 10:23:23;;;;;;;28.60;13.17;;;7.70;93.00;;;;;;5053375;28;20195;-90
2022/01/04 10:25:50;;;;;;;29.93;17.40;;;7.80;92.60;;;;;;5054557;28;20203;-90
2022/01/04 10:28:34;;;;;;;33.77;18.90;;;7.80;92.70;;;;;;5053186;28;20204;-90
2022/01/04 10:31:03;;;;;;;39.20;21.17;;;7.80;92.70;;;;;;5054387;28;20195;-90
2022/01/04 10:33:31;;;;;;;34.70;20.70;;;7.80;92.60;;;;;;5053880;28;20211;-90
2022/01/04 10:35:59;;;;;;;35.20;20.23;;;7.80;92.70;;;;;;5053760;28;20207;-90
2022/01/04 10:38:30;;;;;;;37.17;22.50;;;7.80;92.80;;;;;;5053620;28;20182;-90
2022/01/04 10:41:07;;;;;;;37.27;20.03;;;7.80;92.70;;;;;;5053123;28;20170;-90
2022/01/04 10:43:49;;;;;;;33.87;18.90;;;7.70;92.60;;;;;;5053273;28;20671;-91
2022/01/04 10:46:39;;;;;;;31.00;17.60;;;7.70;92.50;;;;;;5058063;28;20212;-90
2022/01/04 10:49:19;;;;;;;31.83;19.63;;;7.70;92.50;;;;;;5057058;28;20183;-90
2022/01/04 10:52:02;;;;;;;29.97;16.60;;;7.70;92.60;;;;;;5057895;28;20233;-90
2022/01/04 10:54:28;;;;;;;25.80;14.37;;;7.70;92.60;;;;;;5059256;28;20163;-90
2022/01/04 10:57:07;;;;;;;29.13;15.27;;;7.70;92.40;;;;;;5058977;28;20234;-90
2022/01/04 10:59:33;;;;;;;20.30;11.67;;;7.70;92.40;;;;;;5057543;28;20164;-90
2022/01/04 11:01:59;;;;;;;19.23;10.73;;;7.70;91.70;;;;;;5058406;28;20195;-90
2022/01/04 11:04:25;;;;;;;22.70;12.37;;;7.60;91.60;;;;;;5057079;28;20178;-90
2022/01/04 11:06:58;;;;;;;23.13;12.80;;;7.60;91.60;;;;;;5057544;28;20230;-90
2022/01/04 11:09:23;;;;;;;21.37;12.50;;;7.60;91.90;;;;;;5057388;28;20214;-90
2022/01/04 11:11:49;;;;;;;18.63;11.50;;;7.50;92.20;;;;;;5058797;28;20194;-90
2022/01/04 11:14:15;;;;;;;22.57;12.33;;;7.60;92.30;;;;;;5057126;28;20168;-90
2022/01/04 11:16:42;;;;;;;19.27;10.27;;;7.50;92.40;;;;;;5056587;28;20176;-90
2022/01/04 11:19:08;;;;;;;20.13;10.20;;;7.40;92.00;;;;;;5056345;28;20206;-88
2022/01/04 11:21:39;;;;;;;20.17;10.17;;;7.40;92.10;;;;;;5056885;28;20586;-90
2022/01/04 11:24:07;;;;;;;20.77;11.87;;;7.30;92.20;;;;;;5056992;28;20168;-90
2022/01/04 11:26:33;;;;;;;18.27;11.30;;;7.30;92.60;;;;;;5057030;28;20271;-90
2022/01/04 11:28:59;;;;;;;6.70;2.50;;;7.30;92.80;;;;;;5056768;28;20186;-90
2022/01/04 11:31:47;;;;;;;2.80;1.97;;;7.00;91.90;;;;;;5056467;28;20203;-90
2022/01/04 11:34:37;;;;;;;3.70;2.80;;;6.90;91.70;;;;;;5058328;28;20198;-90
2022/01/04 11:37:03;;;;;;;3.57;2.10;;;6.90;91.90;;;;;;5056788;28;20167;-90
2022/01/04 11:39:35;;;;;;;4.07;2.00;;;6.70;91.80;;;;;;5057153;28;20179;-90
2022/01/04 11:42:09;;;;;;;6.60;2.00;;;6.70;92.00;;;;;;5056138;28;20226;-90
2022/01/04 11:44:44;;;;;;;4.23;2.03;;;6.70;92.00;;;;;;5058722;28;20592;-89
2022/01/04 11:47:17;;;;;;;3.10;2.20;;;6.80;92.20;;;;;;5057123;28;20185;-89
2022/01/04 11:50:09;;;;;;;4.50;1.97;;;6.80;92.10;;;;;;5057736;28;20521;-89
2022/01/04 11:52:46;;;;;;;8.20;2.27;;;6.60;92.10;;;;;;5056904;28;20199;-90
2022/01/04 11:55:32;;;;;;;6.17;2.10;;;6.60;92.30;;;;;;5056143;28;20186;-88
2022/01/04 11:58:01;;;;;;;4.27;1.90;;;6.60;92.20;;;;;;5054735;28;20602;-87
2022/01/04 12:00:37;;;;;;;6.60;1.73;;;6.50;92.30;;;;;;5055248;28;20635;-87
2022/01/04 12:03:11;;;;;;;2.27;1.53;;;6.40;92.10;;;;;;5056408;28;20199;-87
2022/01/04 12:05:39;;;;;;;7.23;1.63;;;6.30;91.90;;;;;;5056153;28;20170;-88
2022/01/04 12:08:24;;;;;;;3.27;1.50;;;6.20;92.00;;;;;;5056060;28;20172;-88
2022/01/04 12:10:51;;;;;;;4.63;1.60;;;6.30;92.20;;;;;;5054909;28;20195;-88
2022/01/04 12:13:19;;;;;;;3.43;1.47;;;6.10;92.10;;;;;;5056294;28;20607;-90
2022/01/04 12:15:50;;;;;;;3.60;1.60;;;6.10;92.20;;;;;;5056486;28;20167;-90
2022/01/04 12:18:22;;;;;;;5.50;2.40;;;6.00;92.30;;;;;;5054679;28;20207;-90
2022/01/04 12:20:48;;;;;;;2.30;2.10;;;6.00;92.50;;;;;;5056015;28;20178;-91
2022/01/04 12:23:23;;;;;;;2.83;2.40;;;6.00;92.70;;;;;;5054480;28;20728;-90
2022/01/04 12:26:12;;;;;;;6.33;2.53;;;5.90;92.70;;;;;;5054147;28;20183;-90
2022/01/04 12:28:40;;;;;;;3.20;2.60;;;5.90;92.80;;;;;;5042752;28;20191;-89
2022/01/04 12:31:23;;;;;;;3.53;2.60;;;5.80;92.80;;;;;;5054374;28;20223;-90
2022/01/04 12:34:01;;;;;;;3.83;2.27;;;5.80;92.90;;;;;;5054364;28;20274;-87
2022/01/04 12:36:29;;;;;;;5.93;2.53;;;5.80;92.70;;;;;;5054142;28;20175;-87
2022/01/04 12:39:00;;;;;;;4.80;2.90;;;5.80;92.70;;;;;;5054043;28;20179;-87
2022/01/04 12:41:26;;;;;;;4.97;3.03;;;5.70;92.40;;;;;;5053967;28;20623;-87
2022/01/04 12:43:52;;;;;;;4.93;2.93;;;5.70;92.50;;;;;;5053997;28;20240;-86
2022/01/04 12:46:26;;;;;;;3.27;2.97;;;5.70;92.50;;;;;;5053960;28;20641;-87
2022/01/04 12:48:56;;;;;;;3.50;2.40;;;5.60;92.40;;;;;;5055211;28;20605;-87
2022/01/04 12:51:30;;;;;;;4.00;2.20;;;5.60;92.50;;;;;;5054957;28;20210;-87
2022/01/04 12:53:58;;;;;;;2.87;2.30;;;5.50;92.20;;;;;;5053870;28;20173;-87
2022/01/04 12:56:24;;;;;;;3.07;2.57;;;5.40;92.10;;;;;;5054086;28;20179;-86
2022/01/04 12:58:50;;;;;;;3.53;1.97;;;5.30;91.90;;;;;;5054422;28;20209;-87